createdAt,value
2019-02-15T00:00:47.924Z,32.03
2019-02-15T00:03:53.188Z,32.27
2019-02-15T00:06:58.394Z,30.80
2019-02-15T00:10:03.600Z,26.73
2019-02-15T00:13:13.549Z,21.93
2019-02-15T00:16:15.948Z,21.73
2019-02-15T00:19:33.129Z,20.67
2019-02-15T00:22:38.451Z,21.90
2019-02-15T00:25:43.604Z,21.33
2019-02-15T00:28:49.038Z,18.90
2019-02-15T00:31:54.212Z,21.60
2019-02-15T00:34:59.391Z,20.60
2019-02-15T00:38:04.611Z,23.43
2019-02-15T00:41:09.759Z,28.13
2019-02-15T00:44:14.940Z,24.60
2019-02-15T00:47:40.047Z,25.77
2019-02-15T00:51:00.818Z,23.47
2019-02-15T00:54:12.829Z,32.47
2019-02-15T00:57:39.780Z,24.40
2019-02-15T01:00:59.873Z,25.37
2019-02-15T01:04:20.612Z,26.97
2019-02-15T01:07:44.750Z,25.93
2019-02-15T01:10:58.907Z,33.40
2019-02-15T01:14:04.219Z,23.67
2019-02-15T01:17:10.081Z,21.87
2019-02-15T01:20:15.251Z,21.87
2019-02-15T01:23:20.404Z,25.10
2019-02-15T01:26:40.375Z,23.57
2019-02-15T01:29:57.482Z,20.03
2019-02-15T01:33:12.454Z,31.27
2019-02-15T01:36:42.711Z,25.80
2019-02-15T01:40:12.864Z,23.40
2019-02-15T01:43:40.127Z,27.67
2019-02-15T01:47:04.822Z,22.77
2019-02-15T01:50:09.930Z,17.30
2019-02-15T01:53:15.091Z,17.93
2019-02-15T01:56:20.251Z,16.93
2019-02-15T01:59:25.432Z,20.13
2019-02-15T02:02:30.619Z,15.77
2019-02-15T02:05:35.767Z,19.50
2019-02-15T02:08:40.943Z,19.33
2019-02-15T02:11:46.134Z,16.07
2019-02-15T02:14:51.340Z,15.97
2019-02-15T02:17:56.490Z,16.70
2019-02-15T02:21:01.659Z,13.03
2019-02-15T02:24:06.886Z,18.03
2019-02-15T02:27:12.120Z,18.30
2019-02-15T02:30:17.360Z,17.80
2019-02-15T02:33:22.581Z,20.10
2019-02-15T02:36:49.594Z,15.73
2019-02-15T02:39:54.731Z,17.40
2019-02-15T02:42:59.937Z,17.10
2019-02-15T02:46:05.153Z,15.93
2019-02-15T02:49:10.362Z,16.43
2019-02-15T02:52:15.563Z,14.23
2019-02-15T02:55:20.795Z,15.20
2019-02-15T02:58:25.934Z,18.83
2019-02-15T03:01:31.118Z,18.73
2019-02-15T03:04:36.365Z,18.00
2019-02-15T03:07:42.611Z,14.83
2019-02-15T03:10:47.743Z,19.43
2019-02-15T03:13:52.955Z,14.43
2019-02-15T03:16:58.117Z,13.37
2019-02-15T03:20:03.463Z,13.43
2019-02-15T03:23:08.615Z,19.47
2019-02-15T03:26:13.818Z,17.63
2019-02-15T03:29:19.016Z,14.90
2019-02-15T03:32:24.145Z,15.07
2019-02-15T03:35:29.344Z,21.00
2019-02-15T03:38:42.556Z,12.80
2019-02-15T03:41:47.813Z,17.63
2019-02-15T03:44:53.026Z,14.60
2019-02-15T03:47:58.161Z,17.37
2019-02-15T03:51:03.413Z,16.53
2019-02-15T03:54:08.592Z,19.07
2019-02-15T03:57:13.741Z,19.97
2019-02-15T04:00:18.886Z,15.37
2019-02-15T04:03:24.020Z,15.07
2019-02-15T04:06:30.312Z,15.07
2019-02-15T04:09:35.442Z,15.80
2019-02-15T04:12:40.859Z,14.77
2019-02-15T04:15:45.968Z,19.20
2019-02-15T04:18:51.222Z,19.60
2019-02-15T04:21:56.369Z,17.53
2019-02-15T04:25:01.484Z,19.87
2019-02-15T04:28:06.639Z,18.30
2019-02-15T04:31:11.794Z,19.13
2019-02-15T04:34:16.950Z,17.93
2019-02-15T04:37:22.091Z,17.97
2019-02-15T04:40:27.288Z,19.37
2019-02-15T04:43:32.454Z,15.37
2019-02-15T04:46:37.701Z,19.77
2019-02-15T04:49:42.891Z,17.87
2019-02-15T04:52:48.003Z,16.27
2019-02-15T04:55:53.193Z,15.70
2019-02-15T04:58:58.341Z,14.57
2019-02-15T05:02:03.466Z,19.53
2019-02-15T05:05:08.773Z,15.00
2019-02-15T05:08:14.065Z,14.77
2019-02-15T05:11:20.327Z,13.17
2019-02-15T05:14:25.496Z,19.40
2019-02-15T05:17:30.632Z,17.73
2019-02-15T05:20:35.816Z,23.97
2019-02-15T05:23:40.963Z,22.53
2019-02-15T05:26:46.131Z,17.87
2019-02-15T05:29:51.329Z,21.73
2019-02-15T05:32:56.469Z,21.73
2019-02-15T05:36:01.624Z,23.17
2019-02-15T05:39:08.973Z,21.10
2019-02-15T05:42:14.108Z,19.47
2019-02-15T05:45:19.250Z,14.63
2019-02-15T05:48:24.396Z,20.33
2019-02-15T05:51:29.560Z,19.03
2019-02-15T05:54:34.653Z,13.17
2019-02-15T05:57:39.851Z,16.50
2019-02-15T06:00:45.090Z,19.67
2019-02-15T06:03:50.342Z,21.80
2019-02-15T06:06:57.203Z,22.30
2019-02-15T06:10:02.363Z,20.87
2019-02-15T06:13:07.497Z,20.07
2019-02-15T06:16:12.747Z,19.80
2019-02-15T06:19:17.872Z,20.57
2019-02-15T06:22:23.119Z,24.33
2019-02-15T06:25:28.283Z,18.00
2019-02-15T06:28:34.546Z,20.23
2019-02-15T06:31:40.614Z,21.83
2019-02-15T06:34:45.766Z,20.17
2019-02-15T06:37:50.879Z,25.63
2019-02-15T06:40:56.058Z,20.83
2019-02-15T06:44:01.174Z,28.03
2019-02-15T06:47:06.376Z,25.10
2019-02-15T06:50:11.552Z,20.73
2019-02-15T06:53:16.747Z,21.60
2019-02-15T06:56:21.944Z,22.43
2019-02-15T06:59:55.162Z,23.73
2019-02-15T07:03:10.777Z,19.37
2019-02-15T07:06:15.881Z,31.70
2019-02-15T07:09:21.016Z,20.93
2019-02-15T07:12:26.121Z,21.87
2019-02-15T07:15:33.857Z,23.90
2019-02-15T07:18:38.204Z,23.70
2019-02-15T07:21:43.353Z,20.63
2019-02-15T07:24:48.499Z,23.37
2019-02-15T07:27:53.615Z,15.53
2019-02-15T07:30:58.804Z,16.30
2019-02-15T07:34:03.980Z,15.20
2019-02-15T07:37:09.160Z,19.53
2019-02-15T07:40:15.001Z,17.77
2019-02-15T07:43:20.210Z,26.50
2019-02-15T07:46:25.540Z,15.97
2019-02-15T07:49:30.714Z,24.93
2019-02-15T07:52:35.916Z,18.50
2019-02-15T07:55:41.120Z,21.83
2019-02-15T07:58:46.294Z,15.73
2019-02-15T08:01:51.505Z,15.70
2019-02-15T08:04:56.698Z,17.03
2019-02-15T08:08:01.909Z,21.20
2019-02-15T08:11:07.071Z,20.17
2019-02-15T08:14:14.845Z,17.53
2019-02-15T08:17:19.108Z,20.53
2019-02-15T08:20:24.208Z,19.20
2019-02-15T08:23:29.436Z,20.33
2019-02-15T08:26:34.562Z,18.93
2019-02-15T08:29:39.735Z,19.73
2019-02-15T08:32:44.835Z,16.83
2019-02-15T08:35:50.151Z,16.07
2019-02-15T08:38:55.262Z,19.13
2019-02-15T08:42:03.876Z,19.23
2019-02-15T08:45:08.922Z,15.97
2019-02-15T08:48:14.144Z,19.00
2019-02-15T08:51:19.295Z,21.37
2019-02-15T08:54:24.394Z,17.07
2019-02-15T08:57:29.560Z,20.23
2019-02-15T09:00:34.700Z,17.40
2019-02-15T09:03:39.817Z,21.53
2019-02-15T09:06:44.887Z,17.53
2019-02-15T09:09:50.181Z,19.73
2019-02-15T09:12:55.262Z,15.57
2019-02-15T09:16:09.681Z,15.20
2019-02-15T09:19:07.326Z,16.40
2019-02-15T09:22:12.509Z,24.10
2019-02-15T09:25:17.621Z,16.97
2019-02-15T09:28:30.480Z,18.33
2019-02-15T09:31:35.615Z,15.53
2019-02-15T09:34:40.795Z,18.43
2019-02-15T09:37:45.931Z,14.67
2019-02-15T09:40:51.159Z,16.03
2019-02-15T09:43:56.365Z,18.43
2019-02-15T09:47:01.532Z,19.53
2019-02-15T09:50:08.041Z,18.00
2019-02-15T09:53:14.059Z,23.67
2019-02-15T09:56:19.232Z,19.73
2019-02-15T09:59:24.420Z,20.23
2019-02-15T10:02:29.598Z,21.57
2019-02-15T10:05:34.676Z,21.23
2019-02-15T10:08:39.825Z,23.17
2019-02-15T10:11:44.947Z,19.27
2019-02-15T10:14:50.138Z,21.10
2019-02-15T10:17:58.147Z,19.77
2019-02-15T10:21:03.270Z,18.50
2019-02-15T10:24:09.515Z,16.83
2019-02-15T10:27:14.619Z,18.77
2019-02-15T10:30:19.785Z,23.10
2019-02-15T10:33:24.879Z,24.40
2019-02-15T10:36:30.058Z,17.50
2019-02-15T10:39:35.166Z,17.10
2019-02-15T10:42:40.383Z,14.87
2019-02-15T10:45:45.512Z,20.03
2019-02-15T10:48:50.715Z,17.83
2019-02-15T10:51:55.895Z,13.57
2019-02-15T10:55:01.000Z,15.80
2019-02-15T10:58:07.247Z,14.57
2019-02-15T11:01:12.514Z,15.17
2019-02-15T11:04:17.745Z,16.93
2019-02-15T11:07:22.974Z,16.33
2019-02-15T11:10:28.104Z,18.03
2019-02-15T11:13:33.690Z,15.23
2019-02-15T11:16:46.937Z,13.63
2019-02-15T11:19:45.684Z,13.47
2019-02-15T11:22:50.836Z,15.53
2019-02-15T11:25:55.995Z,15.93
2019-02-15T11:29:01.160Z,14.47
2019-02-15T11:32:06.431Z,14.50
2019-02-15T11:35:12.840Z,12.43
2019-02-15T11:38:17.971Z,14.20
2019-02-15T11:41:23.111Z,13.93
2019-02-15T11:44:28.391Z,15.83
2019-02-15T11:47:33.537Z,15.37
2019-02-15T11:50:38.676Z,13.67
2019-02-15T11:53:43.923Z,15.53
2019-02-15T11:56:49.069Z,14.03
2019-02-15T11:59:54.347Z,17.20
2019-02-15T12:02:59.521Z,16.33
2019-02-15T12:06:04.692Z,15.73
2019-02-15T12:09:09.827Z,15.13
2019-02-15T12:12:15.434Z,14.73
2019-02-15T12:15:20.684Z,16.57
2019-02-15T12:18:25.895Z,14.63
2019-02-15T12:21:30.973Z,18.30
2019-02-15T12:24:36.133Z,14.03
2019-02-15T12:27:41.259Z,14.53
2019-02-15T12:30:46.398Z,13.20
2019-02-15T12:33:51.593Z,13.07
2019-02-15T12:36:56.796Z,16.07
2019-02-15T12:40:01.951Z,13.53
2019-02-15T12:43:08.242Z,13.40
2019-02-15T12:46:13.448Z,15.50
2019-02-15T12:49:18.617Z,13.77
2019-02-15T12:52:23.783Z,12.37
2019-02-15T12:55:28.971Z,17.97
2019-02-15T12:58:34.212Z,12.37
2019-02-15T13:01:39.343Z,12.27
2019-02-15T13:04:44.484Z,11.30
2019-02-15T13:07:49.621Z,11.33
2019-02-15T13:10:54.900Z,12.37
2019-02-15T13:14:00.062Z,10.40
2019-02-15T13:17:05.167Z,12.47
2019-02-15T13:20:10.705Z,14.20
2019-02-15T13:23:15.939Z,12.20
2019-02-15T13:26:21.226Z,12.80
2019-02-15T13:29:26.372Z,11.37
2019-02-15T13:32:31.590Z,11.37
2019-02-15T13:35:36.719Z,14.57
2019-02-15T13:38:41.866Z,11.47
2019-02-15T13:41:47.035Z,11.70
2019-02-15T13:44:52.203Z,12.93
2019-02-15T13:47:57.432Z,11.17
2019-02-15T13:51:02.619Z,10.70
2019-02-15T13:54:07.729Z,10.43
2019-02-15T13:57:12.965Z,10.53
2019-02-15T14:00:18.145Z,11.70
2019-02-15T14:03:23.280Z,11.50
2019-02-15T14:06:28.427Z,11.10
2019-02-15T14:09:33.571Z,11.40
2019-02-15T14:12:38.772Z,13.03
2019-02-15T14:15:43.925Z,12.37
2019-02-15T14:18:49.053Z,13.07
2019-02-15T14:21:54.217Z,13.13
2019-02-15T14:24:59.532Z,11.67
2019-02-15T14:28:04.676Z,10.97
2019-02-15T14:31:09.822Z,13.23
2019-02-15T14:34:15.008Z,12.67
2019-02-15T14:37:20.251Z,7.93
2019-02-15T14:40:25.397Z,9.50
2019-02-15T14:43:30.540Z,9.67
2019-02-15T14:46:35.718Z,7.40
2019-02-15T14:49:40.829Z,10.33
2019-02-15T14:52:46.036Z,9.00
2019-02-15T14:55:51.196Z,8.97
2019-02-15T14:58:56.374Z,9.23
2019-02-15T15:02:01.606Z,10.40
2019-02-15T15:05:07.275Z,8.30
2019-02-15T15:08:12.433Z,10.60
2019-02-15T15:11:17.680Z,8.67
2019-02-15T15:14:22.939Z,9.57
2019-02-15T15:17:28.100Z,9.43
2019-02-15T15:20:33.276Z,9.23
2019-02-15T15:23:38.506Z,10.37
2019-02-15T15:26:43.615Z,9.30
2019-02-15T15:29:50.445Z,9.83
2019-02-15T15:32:55.711Z,10.50
2019-02-15T15:36:00.773Z,9.43
2019-02-15T15:39:06.553Z,12.47
2019-02-15T15:42:12.611Z,9.50
2019-02-15T15:45:17.889Z,9.30
2019-02-15T15:48:23.137Z,10.73
2019-02-15T15:51:28.316Z,10.70
2019-02-15T15:54:33.565Z,9.17
2019-02-15T15:57:38.707Z,14.03
2019-02-15T16:00:43.911Z,8.37
2019-02-15T16:03:49.216Z,9.50
2019-02-15T16:06:54.373Z,11.80
2019-02-15T16:09:59.514Z,12.43
2019-02-15T16:13:04.705Z,13.83
2019-02-15T16:16:09.941Z,11.63
2019-02-15T16:19:15.124Z,14.97
2019-02-15T16:22:20.475Z,14.60
2019-02-15T16:25:25.672Z,35.90
2019-02-15T16:28:31.534Z,13.47
2019-02-15T16:31:36.645Z,13.30
2019-02-15T16:34:41.790Z,23.73
2019-02-15T16:37:46.982Z,19.63
2019-02-15T16:40:52.261Z,19.50
2019-02-15T16:43:57.439Z,16.40
2019-02-15T16:47:02.590Z,16.67
2019-02-15T16:50:08.994Z,15.33
2019-02-15T16:53:14.207Z,18.13
2019-02-15T16:56:19.407Z,17.97
2019-02-15T16:59:24.534Z,17.80
2019-02-15T17:02:29.712Z,18.43
2019-02-15T17:05:34.923Z,15.57
2019-02-15T17:08:42.400Z,14.83
2019-02-15T17:11:47.520Z,16.03
2019-02-15T17:14:52.714Z,13.00
2019-02-15T17:17:57.858Z,14.87
2019-02-15T17:21:03.019Z,14.77
2019-02-15T17:24:08.225Z,13.77
2019-02-15T17:27:17.060Z,17.77
2019-02-15T17:30:22.265Z,14.80
2019-02-15T17:33:27.422Z,16.70
2019-02-15T17:36:32.615Z,15.87
2019-02-15T17:39:37.817Z,24.47
2019-02-15T17:42:43.001Z,23.87
2019-02-15T17:45:49.232Z,22.77
2019-02-15T17:49:00.600Z,26.87
2019-02-15T17:52:01.218Z,27.83
2019-02-15T17:55:06.484Z,24.43
2019-02-15T17:58:11.821Z,25.50
2019-02-15T18:01:16.969Z,25.67
2019-02-15T18:04:22.154Z,25.40
2019-02-15T18:07:27.267Z,38.53
2019-02-15T18:10:32.433Z,37.90
2019-02-15T18:13:37.550Z,43.03
2019-02-15T18:16:42.651Z,40.60
2019-02-15T18:19:47.785Z,39.03
2019-02-15T18:22:52.978Z,51.17
2019-02-15T18:25:58.157Z,33.40
2019-02-15T18:29:03.383Z,30.40
2019-02-15T18:32:08.520Z,36.20
2019-02-15T18:35:13.861Z,27.00
2019-02-15T18:38:19.009Z,34.33
2019-02-15T18:41:24.169Z,94.50
2019-02-15T18:44:29.364Z,46.33
2019-02-15T18:47:34.518Z,32.70
2019-02-15T18:50:39.855Z,35.83
2019-02-15T18:53:45.630Z,32.57
2019-02-15T18:56:51.136Z,26.80
2019-02-15T18:59:56.388Z,22.43
2019-02-15T19:03:01.535Z,25.13
2019-02-15T19:06:07.709Z,23.30
2019-02-15T19:09:12.843Z,19.20
2019-02-15T19:12:18.174Z,54.00
2019-02-15T19:15:25.775Z,61.03
2019-02-15T19:18:31.011Z,33.87
2019-02-15T19:21:37.388Z,26.50
2019-02-15T19:24:42.582Z,26.67
2019-02-15T19:27:47.847Z,24.27
2019-02-15T19:30:53.173Z,22.73
2019-02-15T19:33:58.419Z,20.00
2019-02-15T19:37:05.044Z,23.77
2019-02-15T19:40:11.500Z,22.90
2019-02-15T19:43:16.729Z,20.57
2019-02-15T19:46:21.905Z,18.03
2019-02-15T19:49:27.046Z,16.60
2019-02-15T19:52:32.239Z,22.67
2019-02-15T19:55:37.438Z,23.40
2019-02-15T19:58:43.839Z,23.17
2019-02-15T20:01:49.243Z,27.00
2019-02-15T20:04:54.450Z,23.13
2019-02-15T20:07:59.641Z,32.00
2019-02-15T20:11:04.886Z,30.40
2019-02-15T20:14:10.106Z,32.93
2019-02-15T20:17:15.333Z,30.33
2019-02-15T20:20:20.581Z,35.33
2019-02-15T20:23:26.044Z,42.80
2019-02-15T20:26:31.264Z,41.60
2019-02-15T20:29:36.490Z,40.30
2019-02-15T20:32:41.721Z,43.07
2019-02-15T20:35:47.073Z,42.77
2019-02-15T20:38:52.275Z,35.93
2019-02-15T20:41:57.464Z,33.90
2019-02-15T20:45:02.656Z,49.07
2019-02-15T20:48:12.183Z,41.40
2019-02-15T20:51:14.742Z,44.40
2019-02-15T20:54:20.882Z,55.47
2019-02-15T20:57:26.090Z,43.83
2019-02-15T21:00:31.306Z,45.43
2019-02-15T21:03:36.557Z,43.80
2019-02-15T21:06:41.734Z,42.23
2019-02-15T21:09:46.931Z,28.73
2019-02-15T21:12:52.318Z,43.17
2019-02-15T21:15:57.576Z,38.03
2019-02-15T21:19:02.740Z,37.67
2019-02-15T21:22:07.897Z,28.70
2019-02-15T21:25:13.146Z,36.17
2019-02-15T21:28:18.356Z,24.93
2019-02-15T21:31:23.540Z,27.27
2019-02-15T21:34:28.748Z,22.00
2019-02-15T21:37:33.922Z,24.47
2019-02-15T21:40:39.186Z,18.70
2019-02-15T21:43:44.315Z,25.87
2019-02-15T21:46:49.497Z,25.07
2019-02-15T21:49:54.752Z,30.53
2019-02-15T21:52:59.957Z,33.03
2019-02-15T21:56:05.152Z,50.03
2019-02-15T21:59:10.359Z,49.20
2019-02-15T22:02:15.575Z,43.13
2019-02-15T22:05:20.788Z,34.77
2019-02-15T22:08:25.931Z,37.80
2019-02-15T22:11:31.182Z,34.83
2019-02-15T22:14:36.305Z,31.60
2019-02-15T22:17:41.460Z,37.83
2019-02-15T22:20:46.686Z,32.93
2019-02-15T22:23:55.179Z,28.00
2019-02-15T22:27:02.058Z,33.97
2019-02-15T22:30:09.267Z,30.77
2019-02-15T22:33:14.468Z,32.63
2019-02-15T22:36:19.699Z,28.63
2019-02-15T22:39:24.845Z,26.33
2019-02-15T22:42:30.008Z,26.83
2019-02-15T22:45:35.293Z,26.40
2019-02-15T22:48:40.441Z,22.03
2019-02-15T22:51:45.619Z,24.53
2019-02-15T22:54:50.784Z,24.07
2019-02-15T22:57:55.924Z,23.97
2019-02-15T23:01:05.439Z,24.87
2019-02-15T23:04:10.716Z,27.40
2019-02-15T23:07:16.000Z,31.53
2019-02-15T23:10:21.177Z,27.17
2019-02-15T23:13:26.320Z,25.87
2019-02-15T23:16:31.493Z,38.40
2019-02-15T23:19:36.650Z,37.33
2019-02-15T23:22:41.822Z,34.27
2019-02-15T23:25:47.055Z,29.60
2019-02-15T23:28:52.205Z,32.10
2019-02-15T23:31:57.398Z,31.57
2019-02-15T23:35:03.657Z,31.20
2019-02-15T23:38:08.898Z,27.07
2019-02-15T23:41:14.069Z,25.73
2019-02-15T23:44:19.339Z,23.60
2019-02-15T23:47:24.755Z,22.80
2019-02-15T23:50:30.047Z,26.93
2019-02-15T23:53:35.196Z,20.83
2019-02-15T23:56:40.338Z,21.90
2019-02-15T23:59:45.521Z,20.73
